createdAt,value
2023-05-22T00:00:07.572Z,78.90
2023-05-22T00:02:38.902Z,78.60
2023-05-22T00:05:07.368Z,78.80
2023-05-22T00:07:35.310Z,78.80
2023-05-22T00:10:02.932Z,78.60
2023-05-22T00:12:30.484Z,78.50
2023-05-22T00:14:58.070Z,78.70
2023-05-22T00:17:26.455Z,78.60
2023-05-22T00:19:55.124Z,78.60
2023-05-22T00:22:23.184Z,78.90
2023-05-22T00:24:50.554Z,78.80
2023-05-22T00:27:17.886Z,79.20
2023-05-22T00:29:46.548Z,78.90
2023-05-22T00:32:14.021Z,79.20
2023-05-22T00:34:41.448Z,79.20
2023-05-22T00:37:09.015Z,79.50
2023-05-22T00:39:36.523Z,79.30
2023-05-22T00:42:04.263Z,79.50
2023-05-22T00:44:31.765Z,79.70
2023-05-22T00:46:59.198Z,79.50
2023-05-22T00:49:26.631Z,79.80
2023-05-22T00:51:54.222Z,80.10
2023-05-22T00:54:22.066Z,79.50
2023-05-22T00:56:50.339Z,79.60
2023-05-22T00:59:18.100Z,80.40
2023-05-22T01:01:45.524Z,80.70
2023-05-22T01:04:13.396Z,80.50
2023-05-22T01:06:41.360Z,80.20
2023-05-22T01:09:09.728Z,80.40
2023-05-22T01:11:59.107Z,80.30
2023-05-22T01:14:39.376Z,80.90
2023-05-22T01:17:34.746Z,80.60
2023-05-22T01:20:22.848Z,80.70
2023-05-22T01:23:23.801Z,81.00
2023-05-22T01:26:03.686Z,80.90
2023-05-22T01:28:53.342Z,81.40
2023-05-22T01:31:26.956Z,81.40
2023-05-22T01:34:00.935Z,82.10
2023-05-22T01:36:34.673Z,82.20
2023-05-22T01:39:06.100Z,82.20
2023-05-22T01:41:34.784Z,82.40
2023-05-22T01:44:02.871Z,82.90
2023-05-22T01:46:31.500Z,82.40
2023-05-22T01:48:59.854Z,82.50
2023-05-22T01:51:48.566Z,82.60
2023-05-22T01:54:20.012Z,82.30
2023-05-22T01:56:57.489Z,82.70
2023-05-22T01:59:38.320Z,82.60
2023-05-22T02:02:09.918Z,82.70
2023-05-22T02:04:45.352Z,82.60
2023-05-22T02:07:17.215Z,83.10
2023-05-22T02:09:46.853Z,82.90
2023-05-22T02:12:14.726Z,83.20
2023-05-22T02:14:44.156Z,83.90
2023-05-22T02:17:12.286Z,83.00
2023-05-22T02:19:39.797Z,83.40
2023-05-22T02:22:09.830Z,83.00
2023-05-22T02:24:37.792Z,83.00
2023-05-22T02:27:05.635Z,83.00
2023-05-22T02:29:33.468Z,83.00
2023-05-22T02:32:01.158Z,83.30
2023-05-22T02:34:29.666Z,83.40
2023-05-22T02:36:59.813Z,83.30
2023-05-22T02:39:27.959Z,83.30
2023-05-22T02:41:55.696Z,83.20
2023-05-22T02:44:23.332Z,83.40
2023-05-22T02:46:51.966Z,83.30
2023-05-22T02:49:19.516Z,83.50
2023-05-22T02:51:47.686Z,83.40
2023-05-22T02:54:16.603Z,83.50
2023-05-22T02:56:44.811Z,83.40
2023-05-22T02:59:12.638Z,83.70
2023-05-22T03:01:40.124Z,83.70
2023-05-22T03:04:07.857Z,83.60
2023-05-22T03:06:37.379Z,83.80
2023-05-22T03:09:05.044Z,83.80
2023-05-22T03:11:32.511Z,84.00
2023-05-22T03:14:00.365Z,84.10
2023-05-22T03:16:28.221Z,85.00
2023-05-22T03:19:10.164Z,84.90
2023-05-22T03:21:38.358Z,84.80
2023-05-22T03:24:06.849Z,85.30
2023-05-22T03:26:34.568Z,85.20
2023-05-22T04:24:27.559Z,88.90
2023-05-22T04:26:55.016Z,89.20
2023-05-22T04:29:22.802Z,89.40
2023-05-22T04:31:54.138Z,89.60
2023-05-22T04:34:21.831Z,89.70
2023-05-22T04:36:49.451Z,89.70
2023-05-22T04:39:19.034Z,89.80
2023-05-22T04:41:46.400Z,90.10
2023-05-22T04:44:14.344Z,89.90
2023-05-22T04:46:42.434Z,90.00
2023-05-22T04:49:10.383Z,90.20
2023-05-22T04:51:37.814Z,90.20
2023-05-22T04:54:06.277Z,90.10
2023-05-22T04:56:36.724Z,90.00
2023-05-22T04:59:08.818Z,90.10
2023-05-22T05:01:37.884Z,89.90
2023-05-22T05:04:06.108Z,90.00
2023-05-22T05:06:34.601Z,89.70
2023-05-22T05:09:03.676Z,89.80
2023-05-22T05:11:31.041Z,90.00
2023-05-22T05:13:58.737Z,90.10
2023-05-22T05:16:26.871Z,89.90
2023-05-22T05:18:55.635Z,89.30
2023-05-22T05:21:23.385Z,89.20
2023-05-22T05:23:51.988Z,89.90
2023-05-22T05:26:21.822Z,88.60
2023-05-22T05:28:49.762Z,89.00
2023-05-22T05:31:19.796Z,87.80
2023-05-22T05:34:06.799Z,87.40
2023-05-22T05:36:52.825Z,86.90
2023-05-22T05:39:22.300Z,88.10
2023-05-22T05:41:51.016Z,85.90
2023-05-22T05:44:19.341Z,86.70
2023-05-22T05:46:47.978Z,85.40
2023-05-22T05:49:19.852Z,84.90
2023-05-22T05:51:48.131Z,84.80
2023-05-22T05:54:17.013Z,83.80
2023-05-22T05:56:45.884Z,83.60
2023-05-22T05:59:14.007Z,83.60
2023-05-22T06:02:01.323Z,83.50
2023-05-22T06:04:33.630Z,82.80
2023-05-22T06:07:01.847Z,82.80
2023-05-22T06:09:36.295Z,83.20
2023-05-22T06:12:14.914Z,81.90
2023-05-22T06:14:45.136Z,81.80
2023-05-22T06:17:13.684Z,80.90
2023-05-22T06:19:42.921Z,80.90
2023-05-22T06:22:11.490Z,79.80
2023-05-22T06:24:41.495Z,79.80
2023-05-22T06:27:14.718Z,79.60
2023-05-22T06:29:42.069Z,78.30
2023-05-22T06:32:09.487Z,78.20
2023-05-22T06:34:40.280Z,77.60
2023-05-22T06:37:07.670Z,78.50
2023-05-22T06:39:40.663Z,77.10
2023-05-22T06:42:14.076Z,77.40
2023-05-22T06:45:13.758Z,77.20
2023-05-22T06:47:56.669Z,76.10
2023-05-22T06:50:25.267Z,75.20
2023-05-22T06:52:53.436Z,74.80
2023-05-22T06:55:20.995Z,74.20
2023-05-22T06:58:02.179Z,72.70
2023-05-22T07:00:30.126Z,72.80
2023-05-22T07:03:07.125Z,72.00
2023-05-22T07:05:43.398Z,72.50
2023-05-22T07:08:10.926Z,71.50
2023-05-22T07:10:38.971Z,70.20
2023-05-22T07:13:07.093Z,69.20
2023-05-22T07:15:35.500Z,69.60
2023-05-22T07:18:04.882Z,68.10
2023-05-22T07:20:32.775Z,67.60
2023-05-22T07:23:10.146Z,66.40
2023-05-22T07:25:39.800Z,63.60
2023-05-22T07:28:09.461Z,64.10
2023-05-22T07:30:45.866Z,62.40
2023-05-22T07:33:14.088Z,62.20
2023-05-22T07:35:41.500Z,62.30
2023-05-22T07:38:09.197Z,62.90
2023-05-22T07:40:39.079Z,61.70
2023-05-22T07:43:06.674Z,61.20
2023-05-22T07:45:34.293Z,60.40
2023-05-22T07:48:06.420Z,60.30
2023-05-22T07:50:36.448Z,59.20
2023-05-22T07:53:06.381Z,57.90
2023-05-22T07:55:37.876Z,57.70
2023-05-22T07:58:05.482Z,57.90
2023-05-22T08:00:37.736Z,58.40
2023-05-22T08:03:05.401Z,55.80
2023-05-22T08:05:32.980Z,55.30
2023-05-22T08:08:00.876Z,54.90
2023-05-22T08:10:37.261Z,53.70
2023-05-22T08:13:15.804Z,54.00
2023-05-22T08:15:44.223Z,51.60
2023-05-22T08:18:11.809Z,52.30
2023-05-22T08:20:40.445Z,51.60
2023-05-22T08:23:08.595Z,50.70
2023-05-22T08:25:36.095Z,50.00
2023-05-22T08:28:04.590Z,48.90
2023-05-22T08:30:32.334Z,48.50
2023-05-22T08:32:59.910Z,48.70
2023-05-22T08:35:32.968Z,48.20
2023-05-22T08:38:03.280Z,48.30
2023-05-22T08:40:37.742Z,48.00
2023-05-22T08:43:08.619Z,47.30
2023-05-22T08:45:37.653Z,47.40
2023-05-22T08:48:06.591Z,46.80
2023-05-22T08:50:40.445Z,46.90
2023-05-22T08:53:11.296Z,47.60
2023-05-22T08:55:39.765Z,46.60
2023-05-22T08:58:09.096Z,46.20
2023-05-22T09:00:38.038Z,45.10
2023-05-22T09:03:07.147Z,44.10
2023-05-22T09:05:36.261Z,44.20
2023-05-22T09:08:15.905Z,43.10
2023-05-22T09:10:47.722Z,42.90
2023-05-22T09:13:26.356Z,42.10
2023-05-22T09:15:58.271Z,44.70
2023-05-22T09:18:29.817Z,42.70
2023-05-22T09:20:58.997Z,42.20
2023-05-22T09:23:28.397Z,42.10
2023-05-22T09:25:58.133Z,42.40
2023-05-22T09:28:26.549Z,41.40
2023-05-22T09:30:55.446Z,39.90
2023-05-22T09:33:23.950Z,40.70
2023-05-22T09:35:55.332Z,39.80
2023-05-22T09:38:26.699Z,39.40
2023-05-22T09:40:54.852Z,36.00
2023-05-22T09:43:25.492Z,36.20
2023-05-22T09:46:00.216Z,37.60
2023-05-22T09:48:27.633Z,38.80
2023-05-22T09:50:56.067Z,38.00
2023-05-22T09:53:31.121Z,37.60
2023-05-22T09:56:00.043Z,39.70
2023-05-22T09:58:32.206Z,38.30
2023-05-22T10:01:01.233Z,39.80
2023-05-22T10:03:31.056Z,39.80
2023-05-22T10:06:00.550Z,41.20
2023-05-22T10:08:29.285Z,39.50
2023-05-22T10:10:58.570Z,39.10
2023-05-22T10:13:27.702Z,38.90
2023-05-22T10:15:55.954Z,41.30
2023-05-22T10:18:24.337Z,41.20
2023-05-22T10:20:52.523Z,40.40
2023-05-22T10:23:22.427Z,43.20
2023-05-22T10:25:51.966Z,41.00
2023-05-22T10:28:27.492Z,40.60
2023-05-22T10:31:01.915Z,40.70
2023-05-22T10:34:11.326Z,42.40
2023-05-22T10:36:48.577Z,42.90
2023-05-22T10:39:43.729Z,41.90
2023-05-22T10:42:14.828Z,42.40
2023-05-22T10:44:43.479Z,44.40
2023-05-22T10:47:13.363Z,41.90
2023-05-22T10:49:45.386Z,43.10
2023-05-22T10:52:15.010Z,42.80
2023-05-22T10:54:46.344Z,46.00
2023-05-22T10:57:18.626Z,46.60
2023-05-22T10:59:50.080Z,45.70
2023-05-22T11:02:22.456Z,44.00
2023-05-22T11:04:50.890Z,44.20
2023-05-22T11:07:18.450Z,45.70
2023-05-22T11:09:47.589Z,44.70
2023-05-22T11:12:17.090Z,48.60
2023-05-22T11:15:00.754Z,47.60
2023-05-22T11:17:32.804Z,45.50
2023-05-22T11:20:10.896Z,45.90
2023-05-22T11:22:41.130Z,45.70
2023-05-22T11:25:16.655Z,45.30
2023-05-22T11:27:45.410Z,44.40
2023-05-22T11:30:14.020Z,44.50
2023-05-22T11:32:47.871Z,44.50
2023-05-22T11:35:19.642Z,44.80
2023-05-22T11:37:51.845Z,46.20
2023-05-22T11:40:21.825Z,45.40
2023-05-22T11:42:52.685Z,47.00
2023-05-22T11:45:23.284Z,46.40
2023-05-22T11:47:50.889Z,47.10
2023-05-22T11:50:29.228Z,48.20
2023-05-22T11:53:02.854Z,47.80
2023-05-22T11:55:30.378Z,47.30
2023-05-22T11:57:58.323Z,47.10
2023-05-22T12:00:26.934Z,47.10
2023-05-22T12:02:55.027Z,48.20
2023-05-22T12:05:22.491Z,47.40
2023-05-22T12:07:50.349Z,47.20
2023-05-22T12:10:17.888Z,47.30
2023-05-22T12:12:45.643Z,48.60
2023-05-22T12:15:13.480Z,46.20
2023-05-22T12:17:41.343Z,47.10
2023-05-22T12:20:13.741Z,47.20
2023-05-22T12:22:45.926Z,46.50
2023-05-22T12:25:17.592Z,46.20
2023-05-22T12:27:46.567Z,45.90
2023-05-22T12:30:15.258Z,46.40
2023-05-22T12:32:48.879Z,47.50
2023-05-22T12:35:17.722Z,48.40
2023-05-22T12:37:50.075Z,47.40
2023-05-22T12:40:17.818Z,47.10
2023-05-22T12:42:45.798Z,46.90
2023-05-22T12:45:14.152Z,47.50
2023-05-22T12:47:42.820Z,47.80
2023-05-22T12:50:10.879Z,47.00
2023-05-22T12:52:39.230Z,49.00
2023-05-22T12:55:07.351Z,47.40
2023-05-22T12:57:34.742Z,45.30
2023-05-22T13:00:04.440Z,44.50
2023-05-22T13:02:33.045Z,46.70
2023-05-22T13:05:00.566Z,47.10
2023-05-22T13:07:27.982Z,46.10
2023-05-22T13:09:55.367Z,47.90
2023-05-22T13:12:23.818Z,47.20
2023-05-22T13:14:52.042Z,48.00
2023-05-22T13:17:19.398Z,47.00
2023-05-22T13:19:46.773Z,47.40
2023-05-22T13:22:14.793Z,49.40
2023-05-22T13:24:42.720Z,46.80
2023-05-22T13:27:10.175Z,45.80
2023-05-22T13:29:37.575Z,48.50
2023-05-22T13:32:05.523Z,48.70
2023-05-22T13:34:33.066Z,48.10
2023-05-22T13:37:01.277Z,49.40
2023-05-22T13:39:28.947Z,46.30
2023-05-22T13:41:56.499Z,47.20
2023-05-22T13:44:24.050Z,47.10
2023-05-22T13:46:51.581Z,50.30
2023-05-22T13:49:19.139Z,47.30
2023-05-22T13:51:46.963Z,47.30
2023-05-22T13:54:14.513Z,49.20
2023-05-22T13:56:42.418Z,48.40
2023-05-22T13:59:09.942Z,49.90
2023-05-22T14:01:37.439Z,51.00
2023-05-22T14:04:05.515Z,50.00
2023-05-22T14:06:33.533Z,49.30
2023-05-22T14:09:02.510Z,50.10
2023-05-22T14:11:30.090Z,49.40
2023-05-22T14:13:57.536Z,51.20
2023-05-22T14:16:25.535Z,48.10
2023-05-22T14:18:53.397Z,49.80
2023-05-22T14:21:21.031Z,51.40
2023-05-22T14:23:48.683Z,50.40
2023-05-22T14:26:16.362Z,51.70
2023-05-22T14:28:45.365Z,50.30
2023-05-22T14:31:12.715Z,50.00
2023-05-22T14:33:40.536Z,50.40
2023-05-22T14:36:08.424Z,47.10
2023-05-22T14:38:36.808Z,49.90
2023-05-22T14:41:04.341Z,48.00
2023-05-22T14:43:31.716Z,49.30
2023-05-22T14:45:59.830Z,50.20
2023-05-22T14:48:29.454Z,50.50
2023-05-22T14:50:56.965Z,50.50
2023-05-22T14:53:24.723Z,51.20
2023-05-22T14:55:52.161Z,51.20
2023-05-22T14:58:20.178Z,51.60
2023-05-22T15:00:47.573Z,51.80
2023-05-22T15:03:15.144Z,51.30
2023-05-22T15:05:43.408Z,51.90
2023-05-22T15:08:10.891Z,52.10
2023-05-22T15:10:38.372Z,52.70
2023-05-22T15:13:05.959Z,54.10
2023-05-22T15:15:33.447Z,57.50
2023-05-22T15:18:03.316Z,56.50
2023-05-22T15:20:31.709Z,57.80
2023-05-22T15:22:59.806Z,59.80
2023-05-22T15:25:27.506Z,61.40
2023-05-22T15:27:55.376Z,62.50
2023-05-22T15:30:23.478Z,63.50
2023-05-22T15:32:50.966Z,61.90
2023-05-22T15:35:18.589Z,62.80
2023-05-22T15:37:46.680Z,63.30
2023-05-22T15:40:18.255Z,64.70
2023-05-22T15:42:45.718Z,67.20
2023-05-22T15:45:14.275Z,69.60
2023-05-22T15:47:42.748Z,68.30
2023-05-22T15:50:14.318Z,69.40
2023-05-22T15:52:42.024Z,66.70
2023-05-22T15:55:09.477Z,65.60
2023-05-22T15:57:38.136Z,65.60
2023-05-22T16:00:06.473Z,65.00
2023-05-22T16:02:34.149Z,65.80
2023-05-22T16:05:02.452Z,67.90
2023-05-22T16:07:29.795Z,67.40
2023-05-22T16:09:57.521Z,65.60
2023-05-22T16:12:26.960Z,66.00
2023-05-22T16:15:00.058Z,62.90
2023-05-22T16:17:29.822Z,63.10
2023-05-22T16:19:58.393Z,62.60
2023-05-22T16:22:36.360Z,65.70
2023-05-22T16:25:16.585Z,64.40
2023-05-22T16:27:44.255Z,62.20
2023-05-22T16:30:12.226Z,60.20
2023-05-22T16:32:55.770Z,63.40
2023-05-22T16:35:32.278Z,64.30
2023-05-22T16:38:07.081Z,61.90
2023-05-22T16:40:34.498Z,62.30
2023-05-22T16:43:01.918Z,63.50
2023-05-22T16:45:29.587Z,63.10
2023-05-22T16:47:57.591Z,62.80
2023-05-22T16:50:28.304Z,62.90
2023-05-22T16:52:55.938Z,63.90
2023-05-22T16:55:23.335Z,64.00
2023-05-22T16:57:51.224Z,62.90
2023-05-22T17:00:19.505Z,61.20
2023-05-22T17:02:47.474Z,60.90
2023-05-22T17:05:14.966Z,61.60
2023-05-22T17:07:42.579Z,62.00
2023-05-22T17:10:10.576Z,55.80
2023-05-22T17:12:38.406Z,53.60
2023-05-22T17:15:06.594Z,50.90
2023-05-22T17:17:34.282Z,50.50
2023-05-22T17:20:02.377Z,50.10
2023-05-22T17:22:29.774Z,50.40
2023-05-22T17:24:57.364Z,50.40
2023-05-22T17:27:35.621Z,50.00
2023-05-22T17:30:04.837Z,57.00
2023-05-22T17:32:33.237Z,55.90
2023-05-22T17:35:01.950Z,57.50
2023-05-22T17:37:29.699Z,59.20
2023-05-22T17:39:57.144Z,61.10
2023-05-22T17:42:24.695Z,60.20
2023-05-22T17:44:52.064Z,64.60
2023-05-22T17:47:19.432Z,67.00
2023-05-22T17:49:47.137Z,66.80
2023-05-22T17:52:15.044Z,64.40
2023-05-22T17:54:42.457Z,65.90
2023-05-22T17:57:09.874Z,65.80
2023-05-22T17:59:39.837Z,67.00
2023-05-22T18:02:11.421Z,66.80
2023-05-22T18:04:38.844Z,68.20
2023-05-22T18:07:06.784Z,68.80
2023-05-22T18:09:35.424Z,68.30
2023-05-22T18:12:03.662Z,69.70
2023-05-22T18:14:31.536Z,67.40
2023-05-22T18:16:59.068Z,67.50
2023-05-22T18:19:26.619Z,67.80
2023-05-22T18:21:55.522Z,70.30
2023-05-22T18:24:25.963Z,69.60
2023-05-22T18:26:55.950Z,69.80
2023-05-22T18:29:23.410Z,69.20
2023-05-22T18:31:50.862Z,68.40
2023-05-22T18:34:18.499Z,70.20
2023-05-22T18:36:46.005Z,71.70
2023-05-22T18:39:14.908Z,72.20
2023-05-22T18:41:42.320Z,73.70
2023-05-22T18:44:09.980Z,75.20
2023-05-22T18:46:37.744Z,75.70
2023-05-22T18:49:05.283Z,76.70
2023-05-22T18:51:33.375Z,77.00
2023-05-22T18:54:00.894Z,76.20
2023-05-22T18:56:28.425Z,76.80
2023-05-22T18:58:56.269Z,78.10
2023-05-22T19:01:24.715Z,78.10
2023-05-22T19:03:52.088Z,78.40
2023-05-22T19:06:19.947Z,78.80
2023-05-22T19:08:47.369Z,79.30
2023-05-22T19:11:15.476Z,80.10
2023-05-22T19:13:44.205Z,80.10
2023-05-22T19:16:13.774Z,80.50
2023-05-22T19:18:41.482Z,81.10
2023-05-22T19:21:09.553Z,81.30
2023-05-22T19:23:37.420Z,81.70
2023-05-22T19:26:05.804Z,80.90
2023-05-22T19:28:33.352Z,81.90
2023-05-22T19:31:03.245Z,81.80
2023-05-22T19:33:32.382Z,81.60
2023-05-22T19:36:02.179Z,82.40
2023-05-22T19:38:31.034Z,82.70
2023-05-22T19:40:58.649Z,83.10
2023-05-22T19:43:26.276Z,83.20
2023-05-22T19:45:54.184Z,84.10
2023-05-22T19:48:21.661Z,83.00
2023-05-22T19:50:49.084Z,83.60
2023-05-22T19:53:16.573Z,84.10
2023-05-22T19:55:44.430Z,83.70
2023-05-22T19:58:11.770Z,83.30
2023-05-22T20:00:41.653Z,84.00
2023-05-22T20:03:09.670Z,83.80
2023-05-22T20:05:37.901Z,84.20
2023-05-22T20:08:05.841Z,84.70
2023-05-22T20:10:36.228Z,84.70
2023-05-22T20:13:05.167Z,85.70
2023-05-22T20:15:32.921Z,84.20
2023-05-22T20:18:02.565Z,83.20
2023-05-22T20:20:31.066Z,80.30
2023-05-22T20:22:59.462Z,80.10
2023-05-22T20:25:26.947Z,80.20
2023-05-22T20:27:54.330Z,81.10
2023-05-22T20:30:24.606Z,81.70
2023-05-22T20:32:52.039Z,81.80
2023-05-22T20:35:20.206Z,80.80
2023-05-22T20:37:48.025Z,80.60
2023-05-22T20:40:15.952Z,80.70
2023-05-22T20:42:43.747Z,80.80
2023-05-22T20:45:14.408Z,80.70
2023-05-22T20:47:43.897Z,80.80
2023-05-22T20:50:11.578Z,81.20
2023-05-22T20:52:39.287Z,81.30
2023-05-22T20:55:07.390Z,81.60
2023-05-22T20:57:35.137Z,81.80
2023-05-22T21:00:05.125Z,83.30
2023-05-22T21:02:33.144Z,83.60
2023-05-22T21:05:00.561Z,84.60
2023-05-22T21:07:28.301Z,84.30
2023-05-22T21:09:55.928Z,84.60
2023-05-22T21:12:23.262Z,83.60
2023-05-22T21:14:50.751Z,84.90
2023-05-22T21:17:18.489Z,85.00
2023-05-22T21:19:46.302Z,84.20
2023-05-22T21:22:13.724Z,83.20
2023-05-22T21:24:41.015Z,83.60
2023-05-22T21:27:08.303Z,84.00
2023-05-22T21:29:35.721Z,85.00
2023-05-22T21:32:03.093Z,84.70
2023-05-22T21:34:31.003Z,84.90
2023-05-22T21:36:58.459Z,85.10
2023-05-22T21:39:25.860Z,86.30
2023-05-22T21:41:53.226Z,85.80
2023-05-22T21:44:20.557Z,86.40
2023-05-22T21:46:47.969Z,86.70
2023-05-22T21:49:15.597Z,86.60
2023-05-22T21:51:42.947Z,87.10
2023-05-22T21:54:10.510Z,87.40
2023-05-22T21:56:38.535Z,87.10
2023-05-22T21:59:06.061Z,87.80
2023-05-22T22:01:33.521Z,87.50
2023-05-22T22:04:00.930Z,87.40
2023-05-22T22:06:28.378Z,87.20
2023-05-22T22:08:58.623Z,87.90
2023-05-22T22:11:26.537Z,87.80
2023-05-22T22:13:54.513Z,88.50
2023-05-22T22:16:22.236Z,88.00
2023-05-22T22:18:50.424Z,88.10
2023-05-22T22:21:17.865Z,88.20
2023-05-22T22:23:45.727Z,88.00
2023-05-22T22:26:13.672Z,88.20
2023-05-22T22:28:41.031Z,88.50
2023-05-22T22:31:08.332Z,88.90
2023-05-22T22:33:35.781Z,89.30
2023-05-22T22:36:03.347Z,88.80
2023-05-22T22:38:35.035Z,89.00
2023-05-22T22:41:04.733Z,89.20
2023-05-22T22:43:32.159Z,89.30
2023-05-22T22:46:00.050Z,89.40
2023-05-22T22:48:27.499Z,89.60
2023-05-22T22:50:55.075Z,87.90
2023-05-22T22:53:22.564Z,89.00
2023-05-22T22:55:55.858Z,87.60
2023-05-22T22:58:24.140Z,88.90
2023-05-22T23:00:51.572Z,89.20
2023-05-22T23:03:19.365Z,89.20
2023-05-22T23:05:46.842Z,89.20
2023-05-22T23:08:14.206Z,89.70
2023-05-22T23:10:41.510Z,89.90
2023-05-22T23:13:09.028Z,90.00
2023-05-22T23:15:36.912Z,89.60
2023-05-22T23:18:04.526Z,89.40
2023-05-22T23:20:31.947Z,89.20
2023-05-22T23:22:59.356Z,88.60
2023-05-22T23:25:26.974Z,88.90
2023-05-22T23:27:54.518Z,87.20
2023-05-22T23:30:21.896Z,87.20
2023-05-22T23:32:49.939Z,88.20
2023-05-22T23:35:17.390Z,88.30
2023-05-22T23:37:44.830Z,88.00
2023-05-22T23:40:12.639Z,88.40
2023-05-22T23:42:40.069Z,88.20
2023-05-22T23:45:07.900Z,88.80
2023-05-22T23:47:35.416Z,88.80
2023-05-22T23:50:02.743Z,88.80
2023-05-22T23:52:30.229Z,89.60
2023-05-22T23:54:58.285Z,89.80
2023-05-22T23:57:25.640Z,89.70
2023-05-22T23:59:52.987Z,90.00
